Terminal Aerodrome Forecast
Issued by NWS Burlington, VT

Home | Current Version | Previous Version | Text Only | Print | Product List | Glossary On
Versions: 1 2 3 4 5 6 7 8 9 10 11 12 13 14 15 16 17
862
FTUS41 KBTV 072328
TAFBTV
TAF
KBTV 072328Z 0800/0824 19005KT P6SM BKN040
     FM080700 19004KT P6SM BKN025
     FM081000 19007KT P6SM OVC040
     FM081500 20008KT P6SM VCSH OVC040
     FM081700 23007KT P6SM VCSH BKN040=

USA.gov is the U.S. government's official web portal to all federal, state and local government web resources and services.